Disclaimer

Please do not use the information listed here in-flight or in-navigation, as they are not provided to us by the airports but are provided by volunteers, so they might be outdated.

Search


Regions


Airport information page

No radio frequency information is available.

Airport informations:
Latitude: 38° 04' 44.05" N
Longitude: 007° 55' 56.63" W
Elevation: 636 feet - 194 meters
Operating hours: Remarks
Operating agency: Military
Timezone: UTC 0(+1DT) - Last Sunday in March to last Sunday in October
Fuel: JP-8, SemiKeroscene MIL Spec T-83133, without icing inhibitor

100/130 MIL Spec, low lead, aviation gasoline (BLUE)

Runway information:
01R/19L - 9682 x 98 feet< - >2951 x 30 meters
01L/19R - 11319 x 197 feet< - >3450 x 60 meters

Recent METARs:
LPBJ 151200Z 24009KT 9999 BKN020 14/10 Q1029
LPBJ 151300Z 21011KT 9999 BKN020 15/09 Q1028
LPBJ 151300Z 21011KT 9999 BKN020 15/09 Q1028

Airport on the map: